createdAt,value
2023-03-29T00:00:20.244Z,101120.47
2023-03-29T00:02:51.184Z,101117.88
2023-03-29T00:05:26.888Z,101118.31
2023-03-29T00:08:02.749Z,101117.59
2023-03-29T00:10:34.543Z,101122.25
2023-03-29T00:13:05.415Z,101121.09
2023-03-29T00:15:35.852Z,101126.94
2023-03-29T00:18:06.795Z,101120.78
2023-03-29T00:20:37.771Z,101124.16
2023-03-29T00:23:08.423Z,101126.75
2023-03-29T00:25:39.100Z,101120.78
2023-03-29T00:28:09.756Z,101121.78
2023-03-29T00:30:42.140Z,101121.03
2023-03-29T00:33:13.491Z,101127.84
2023-03-29T00:35:46.040Z,101119.34
2023-03-29T00:38:18.056Z,101117.53
2023-03-29T00:40:48.959Z,101117.03
2023-03-29T00:43:21.589Z,101123.09
2023-03-29T00:45:52.496Z,101115.88
2023-03-29T00:48:30.967Z,101126.25
2023-03-29T00:51:08.187Z,101108.28
2023-03-29T00:53:55.312Z,101109.19
2023-03-29T00:56:36.167Z,101109.66
2023-03-29T00:59:22.586Z,101116.78
2023-03-29T01:01:55.549Z,101113.28
2023-03-29T01:04:30.370Z,101116.38
2023-03-29T01:07:19.597Z,101110.25
2023-03-29T01:09:57.695Z,101109.00
2023-03-29T01:12:33.612Z,101111.34
2023-03-29T01:15:13.321Z,101107.81
2023-03-29T01:17:51.203Z,101107.88
2023-03-29T01:20:25.496Z,101105.38
2023-03-29T01:23:22.240Z,101103.19
2023-03-29T01:25:58.945Z,101099.22
2023-03-29T01:28:46.796Z,101106.91
2023-03-29T01:31:33.495Z,101097.16
2023-03-29T01:34:14.534Z,101085.75
2023-03-29T01:37:18.145Z,101092.75
2023-03-29T01:39:49.380Z,101071.22
2023-03-29T01:42:30.028Z,101077.09
2023-03-29T01:45:32.687Z,101074.00
2023-03-29T01:48:35.201Z,101073.84
2023-03-29T01:51:11.449Z,101070.91
2023-03-29T01:54:05.686Z,101078.41
2023-03-29T01:56:41.309Z,101072.94
2023-03-29T01:59:21.603Z,101065.25
2023-03-29T02:01:54.717Z,101068.34
2023-03-29T02:04:32.639Z,101058.78
2023-03-29T02:07:06.268Z,101065.88
2023-03-29T02:09:38.677Z,101060.47
2023-03-29T02:12:11.191Z,101062.16
2023-03-29T02:14:46.146Z,101061.38
2023-03-29T02:17:28.712Z,101061.38
2023-03-29T02:20:15.412Z,101067.88
2023-03-29T02:22:57.938Z,101054.72
2023-03-29T02:25:29.108Z,101046.66
2023-03-29T02:28:00.309Z,101043.16
2023-03-29T02:30:52.381Z,101053.16
2023-03-29T02:33:32.625Z,101037.75
2023-03-29T02:36:14.020Z,101035.03
2023-03-29T02:38:44.942Z,101032.97
2023-03-29T02:41:18.886Z,101027.34
2023-03-29T02:43:50.116Z,101018.81
2023-03-29T02:46:24.302Z,101008.59
2023-03-29T02:48:56.587Z,101010.50
2023-03-29T02:51:37.431Z,100999.00
2023-03-29T02:54:23.062Z,100998.59
2023-03-29T02:57:07.524Z,101001.50
2023-03-29T02:59:39.676Z,100990.69
2023-03-29T03:02:14.665Z,100993.19
2023-03-29T03:04:46.400Z,100993.63
2023-03-29T03:07:17.061Z,100987.56
2023-03-29T03:09:48.714Z,100997.84
2023-03-29T03:12:19.956Z,100992.34
2023-03-29T03:14:51.518Z,100984.03
2023-03-29T03:17:25.678Z,100984.47
2023-03-29T03:19:56.335Z,100979.47
2023-03-29T03:22:27.428Z,100974.44
2023-03-29T03:24:58.780Z,100966.13
2023-03-29T03:27:30.200Z,100958.78
2023-03-29T03:30:01.241Z,100959.00
2023-03-29T03:32:50.857Z,100955.25
2023-03-29T03:35:24.753Z,100945.22
2023-03-29T03:37:56.240Z,100945.44
2023-03-29T03:40:28.536Z,100944.81
2023-03-29T03:43:00.097Z,100936.84
2023-03-29T03:45:31.085Z,100940.41
2023-03-29T03:48:20.594Z,100933.53
2023-03-29T03:50:55.096Z,100933.50
2023-03-29T03:53:30.808Z,100924.09
2023-03-29T03:56:17.542Z,100914.69
2023-03-29T03:59:08.320Z,100914.25
2023-03-29T04:01:48.331Z,100910.66
2023-03-29T04:04:24.279Z,100910.06
2023-03-29T04:07:05.837Z,100901.03
2023-03-29T04:09:37.234Z,100904.38
2023-03-29T04:12:28.418Z,100895.41
2023-03-29T04:14:59.828Z,100897.06
2023-03-29T04:17:31.784Z,100889.28
2023-03-29T04:20:13.340Z,100874.19
2023-03-29T04:22:44.808Z,100873.09
2023-03-29T04:25:16.520Z,100864.53
2023-03-29T04:27:54.167Z,100865.50
2023-03-29T04:30:43.960Z,100865.69
2023-03-29T04:33:19.455Z,100869.19
2023-03-29T04:36:00.792Z,100852.03
2023-03-29T04:38:37.057Z,100849.56
2023-03-29T04:41:08.701Z,100853.25
2023-03-29T04:43:58.049Z,100840.00
2023-03-29T04:46:30.441Z,100846.66
2023-03-29T04:49:39.977Z,100846.84
2023-03-29T04:52:15.907Z,100832.59
2023-03-29T04:54:48.672Z,100835.44
2023-03-29T04:57:35.465Z,100827.88
2023-03-29T05:00:16.304Z,100832.66
2023-03-29T05:03:05.792Z,100836.22
2023-03-29T05:05:42.427Z,100836.28
2023-03-29T05:08:13.363Z,100830.00
2023-03-29T05:11:11.770Z,100828.78
2023-03-29T05:13:43.556Z,100822.97
2023-03-29T05:16:14.986Z,100814.81
2023-03-29T05:18:46.141Z,100811.88
2023-03-29T05:21:17.236Z,100802.88
2023-03-29T05:23:50.537Z,100795.31
2023-03-29T05:26:48.741Z,100787.97
2023-03-29T05:29:20.173Z,100782.78
2023-03-29T05:31:57.544Z,100777.78
2023-03-29T05:34:29.118Z,100777.84
2023-03-29T05:37:02.744Z,100767.94
2023-03-29T05:39:43.909Z,100766.81
2023-03-29T05:42:16.651Z,100765.56
2023-03-29T05:44:57.421Z,100764.84
2023-03-29T05:47:29.618Z,100754.09
2023-03-29T05:50:00.800Z,100758.66
2023-03-29T05:52:31.900Z,100758.19
2023-03-29T05:55:03.166Z,100751.28
2023-03-29T05:57:38.550Z,100745.31
2023-03-29T06:00:27.850Z,100755.44
2023-03-29T06:03:17.978Z,100769.97
2023-03-29T06:06:00.177Z,100755.00
2023-03-29T06:08:32.885Z,100760.31
2023-03-29T06:11:19.814Z,100759.47
2023-03-29T06:14:08.690Z,100753.03
2023-03-29T06:16:45.945Z,100751.28
2023-03-29T06:19:18.434Z,100746.13
2023-03-29T06:21:53.533Z,100743.41
2023-03-29T06:24:31.086Z,100738.97
2023-03-29T06:27:07.941Z,100730.47
2023-03-29T06:29:38.785Z,100728.03
2023-03-29T06:32:09.785Z,100722.03
2023-03-29T06:34:59.532Z,100716.56
2023-03-29T06:37:35.764Z,100712.66
2023-03-29T06:40:28.675Z,100703.66
2023-03-29T06:43:00.499Z,100701.16
2023-03-29T06:45:43.726Z,100696.94
2023-03-29T06:48:40.824Z,100696.00
2023-03-29T06:51:12.461Z,100696.22
2023-03-29T06:53:44.265Z,100686.25
2023-03-29T06:56:17.020Z,100688.38
2023-03-29T06:58:57.905Z,100680.31
2023-03-29T07:01:48.201Z,100677.47
2023-03-29T07:04:38.233Z,100674.81
2023-03-29T07:07:45.047Z,100678.78
2023-03-29T07:10:35.361Z,100676.00
2023-03-29T07:13:24.872Z,100660.78
2023-03-29T07:15:57.684Z,100655.81
2023-03-29T07:18:45.254Z,100667.16
2023-03-29T07:21:25.015Z,100663.03
2023-03-29T07:23:56.716Z,100657.97
2023-03-29T07:26:28.380Z,100656.09
2023-03-29T07:29:02.376Z,100658.28
2023-03-29T07:31:36.300Z,100656.41
2023-03-29T07:34:30.997Z,100642.78
2023-03-29T07:37:02.723Z,100653.69
2023-03-29T07:39:34.758Z,100649.75
2023-03-29T07:42:38.320Z,100636.00
2023-03-29T07:45:12.729Z,100631.47
2023-03-29T07:47:58.891Z,100640.38
2023-03-29T07:50:35.943Z,100644.00
2023-03-29T07:53:08.361Z,100645.50
2023-03-29T07:55:39.597Z,100650.97
2023-03-29T07:58:30.464Z,100650.81
2023-03-29T08:01:02.012Z,100652.56
2023-03-29T08:03:51.008Z,100655.19
2023-03-29T08:06:23.420Z,100652.47
2023-03-29T08:08:54.554Z,100648.09
2023-03-29T08:11:25.767Z,100658.09
2023-03-29T08:14:06.162Z,100650.91
2023-03-29T08:17:09.762Z,100652.72
2023-03-29T08:19:50.807Z,100659.31
2023-03-29T08:22:29.131Z,100651.38
2023-03-29T08:25:22.811Z,100659.16
2023-03-29T08:27:56.573Z,100655.47
2023-03-29T08:30:52.933Z,100662.31
2023-03-29T08:33:23.703Z,100655.47
2023-03-29T08:36:05.596Z,100655.91
2023-03-29T08:38:39.861Z,100655.75
2023-03-29T08:41:29.335Z,100655.06
2023-03-29T08:44:30.444Z,100647.38
2023-03-29T08:47:08.517Z,100656.59
2023-03-29T08:49:52.053Z,100641.13
2023-03-29T08:52:43.571Z,100648.66
2023-03-29T08:55:51.835Z,100654.16
2023-03-29T08:58:49.146Z,100653.78
2023-03-29T09:01:25.582Z,100654.22
2023-03-29T09:04:30.073Z,100647.66
2023-03-29T09:07:25.339Z,100655.47
2023-03-29T09:10:01.269Z,100653.38
2023-03-29T09:13:15.928Z,100656.06
2023-03-29T09:16:01.793Z,100660.03
2023-03-29T09:19:03.971Z,100670.13
2023-03-29T09:22:11.415Z,100663.81
2023-03-29T09:25:08.769Z,100671.19
2023-03-29T09:27:42.654Z,100678.97
2023-03-29T09:30:42.845Z,100688.94
2023-03-29T09:33:38.283Z,100690.66
2023-03-29T09:36:45.011Z,100692.31
2023-03-29T09:39:18.922Z,100706.19
2023-03-29T09:42:10.562Z,100708.25
2023-03-29T09:44:59.066Z,100704.25
2023-03-29T09:47:49.641Z,100717.50
2023-03-29T09:50:31.947Z,100721.28
2023-03-29T09:53:06.974Z,100714.63
2023-03-29T09:55:45.313Z,100724.06
2023-03-29T09:58:32.069Z,100738.59
2023-03-29T10:01:14.001Z,100739.34
2023-03-29T10:03:55.907Z,100746.94
2023-03-29T10:06:31.477Z,100749.91
2023-03-29T10:09:05.595Z,100754.91
2023-03-29T10:11:44.368Z,100757.84
2023-03-29T10:14:43.564Z,100762.50
2023-03-29T10:17:30.507Z,100759.59
2023-03-29T10:20:04.984Z,100763.81
2023-03-29T10:22:39.614Z,100776.34
2023-03-29T10:25:16.352Z,100784.31
2023-03-29T10:27:51.007Z,100789.78
2023-03-29T10:30:25.638Z,100785.63
2023-03-29T10:33:01.063Z,100797.75
2023-03-29T10:35:46.637Z,100802.16
2023-03-29T10:38:35.998Z,100803.19
2023-03-29T10:41:11.913Z,100808.88
2023-03-29T10:43:51.959Z,100805.31
2023-03-29T10:46:31.440Z,100808.69
2023-03-29T10:49:12.250Z,100818.28
2023-03-29T10:51:49.015Z,100811.19
2023-03-29T10:54:25.926Z,100826.47
2023-03-29T10:57:00.690Z,100822.47
2023-03-29T10:59:58.897Z,100822.91
2023-03-29T11:02:54.670Z,100826.47
2023-03-29T11:05:51.588Z,100828.34
2023-03-29T11:08:39.434Z,100831.69
2023-03-29T11:11:38.286Z,100833.16
2023-03-29T11:14:23.851Z,100836.47
2023-03-29T11:17:16.344Z,100844.19
2023-03-29T11:20:14.269Z,100844.19
2023-03-29T11:23:12.513Z,100843.38
2023-03-29T11:26:15.560Z,100850.88
2023-03-29T11:28:54.207Z,100863.81
2023-03-29T11:31:42.641Z,100860.50
2023-03-29T11:34:14.048Z,100864.03
2023-03-29T11:37:03.808Z,100860.50
2023-03-29T11:39:58.262Z,100871.75
2023-03-29T11:42:36.079Z,100876.75
2023-03-29T11:45:18.292Z,100870.91
2023-03-29T11:47:54.080Z,100874.25
2023-03-29T11:50:52.043Z,100876.34
2023-03-29T11:53:30.469Z,100875.06
2023-03-29T11:56:12.032Z,100879.25
2023-03-29T11:58:49.191Z,100883.00
2023-03-29T12:02:14.904Z,100880.09
2023-03-29T12:05:02.241Z,100886.75
2023-03-29T12:07:43.026Z,100883.00
2023-03-29T12:10:39.446Z,100881.50
2023-03-29T12:13:18.761Z,100878.84
2023-03-29T12:16:17.057Z,100888.22
2023-03-29T12:18:54.151Z,100884.25
2023-03-29T12:21:31.480Z,100888.81
2023-03-29T12:24:04.071Z,100888.81
2023-03-29T12:26:44.190Z,100890.47
2023-03-29T12:29:36.478Z,100892.56
2023-03-29T12:32:36.072Z,100910.91
2023-03-29T12:36:01.686Z,100914.88
2023-03-29T12:39:00.547Z,100914.41
2023-03-29T12:41:53.401Z,100914.59
2023-03-29T12:45:01.460Z,100917.53
2023-03-29T12:47:47.058Z,100921.06
2023-03-29T12:50:31.144Z,100922.72
2023-03-29T12:53:40.710Z,100930.06
2023-03-29T12:56:23.074Z,100927.94
2023-03-29T12:59:19.814Z,100925.81
2023-03-29T13:02:21.983Z,100937.72
2023-03-29T13:05:07.737Z,100933.75
2023-03-29T13:07:51.942Z,100937.91
2023-03-29T13:10:43.393Z,100945.81
2023-03-29T13:13:24.983Z,100945.81
2023-03-29T13:15:58.005Z,100950.41
2023-03-29T13:18:49.164Z,100952.91
2023-03-29T13:21:54.323Z,100948.94
2023-03-29T13:24:32.364Z,100952.91
2023-03-29T13:27:28.183Z,100945.84
2023-03-29T13:30:12.813Z,100953.78
2023-03-29T13:32:51.735Z,100959.19
2023-03-29T13:35:34.101Z,100960.84
2023-03-29T13:38:20.752Z,100963.97
2023-03-29T13:41:04.249Z,100966.09
2023-03-29T13:43:43.187Z,100964.59
2023-03-29T13:46:43.652Z,100962.75
2023-03-29T13:49:29.948Z,100960.91
2023-03-29T13:52:17.905Z,100963.81
2023-03-29T13:54:55.367Z,100968.41
2023-03-29T13:57:35.762Z,100975.91
2023-03-29T14:00:26.037Z,100983.63
2023-03-29T14:03:03.110Z,100985.06
2023-03-29T14:05:47.606Z,100982.53
2023-03-29T14:08:29.226Z,100985.06
2023-03-29T14:11:06.303Z,100983.78
2023-03-29T14:13:38.570Z,100987.31
2023-03-29T14:16:14.968Z,100988.38
2023-03-29T14:18:47.309Z,100986.28
2023-03-29T14:21:19.279Z,100989.63
2023-03-29T14:23:57.458Z,100987.53
2023-03-29T14:26:36.865Z,100993.38
2023-03-29T14:29:11.643Z,100997.13
2023-03-29T14:31:44.487Z,101005.25
2023-03-29T14:34:17.773Z,101010.03
2023-03-29T14:36:53.391Z,101015.63
2023-03-29T14:39:25.414Z,101012.09
2023-03-29T14:41:58.427Z,101015.00
2023-03-29T14:44:32.973Z,101022.09
2023-03-29T14:47:04.939Z,101025.81
2023-03-29T14:49:36.895Z,101014.56
2023-03-29T14:52:08.607Z,101018.31
2023-03-29T14:54:51.465Z,101018.31
2023-03-29T14:57:26.434Z,101011.22
2023-03-29T15:00:03.174Z,101013.13
2023-03-29T15:02:36.453Z,101016.63
2023-03-29T15:05:08.927Z,101019.75
2023-03-29T15:07:40.844Z,101018.69
2023-03-29T15:10:19.675Z,101015.38
2023-03-29T15:12:51.316Z,101021.19
2023-03-29T15:15:22.515Z,101023.72
2023-03-29T15:17:54.184Z,101011.56
2023-03-29T15:20:28.973Z,101014.47
2023-03-29T15:23:01.954Z,101016.53
2023-03-29T15:25:39.557Z,101014.84
2023-03-29T15:28:36.323Z,101019.88
2023-03-29T15:31:20.205Z,101016.13
2023-03-29T15:34:09.479Z,101019.44
2023-03-29T15:36:43.197Z,101013.78
2023-03-29T15:39:19.216Z,101017.72
2023-03-29T15:41:52.627Z,101007.69
2023-03-29T15:44:29.974Z,101011.41
2023-03-29T15:47:01.566Z,101006.00
2023-03-29T15:49:32.184Z,101009.75
2023-03-29T15:52:02.972Z,101006.78
2023-03-29T15:54:34.772Z,101003.44
2023-03-29T15:57:08.311Z,101001.78
2023-03-29T15:59:39.126Z,100997.22
2023-03-29T16:02:14.806Z,100999.47
2023-03-29T16:04:46.293Z,100997.53
2023-03-29T16:07:19.024Z,100994.19
2023-03-29T16:09:49.674Z,100985.03
2023-03-29T16:12:20.923Z,100995.22
2023-03-29T16:14:53.014Z,101001.69
2023-03-29T16:17:23.920Z,100988.16
2023-03-29T16:19:54.967Z,100988.34
2023-03-29T16:22:25.879Z,100987.91
2023-03-29T16:24:57.164Z,100982.91
2023-03-29T16:27:29.753Z,100984.94
2023-03-29T16:30:01.464Z,100983.25
2023-03-29T16:32:35.691Z,100977.84
2023-03-29T16:35:10.044Z,100970.78
2023-03-29T16:37:41.919Z,100969.09
2023-03-29T16:40:13.438Z,100980.31
2023-03-29T16:42:44.420Z,100974.25
2023-03-29T16:45:17.901Z,100985.25
2023-03-29T16:47:54.350Z,100977.75
2023-03-29T16:50:25.401Z,100988.56
2023-03-29T16:52:56.119Z,100969.81
2023-03-29T16:55:27.988Z,100967.31
2023-03-29T16:57:58.926Z,100954.81
2023-03-29T17:00:30.256Z,100963.13
2023-03-29T17:03:04.256Z,100956.88
2023-03-29T17:05:40.914Z,100955.59
2023-03-29T17:08:11.836Z,100946.44
2023-03-29T17:10:43.295Z,100954.75
2023-03-29T17:13:14.677Z,100946.84
2023-03-29T17:15:45.352Z,100933.06
2023-03-29T17:18:16.714Z,100942.22
2023-03-29T17:20:47.305Z,100932.41
2023-03-29T17:23:18.824Z,100922.63
2023-03-29T17:25:50.236Z,100926.38
2023-03-29T17:28:20.924Z,100918.91
2023-03-29T17:30:52.126Z,100918.44
2023-03-29T17:33:26.910Z,100906.16
2023-03-29T17:35:57.586Z,100905.13
2023-03-29T17:38:30.599Z,100898.03
2023-03-29T17:41:02.140Z,100892.63
2023-03-29T17:43:33.632Z,100885.09
2023-03-29T17:46:05.112Z,100886.97
2023-03-29T17:48:35.714Z,100887.53
2023-03-29T17:51:07.068Z,100882.59
2023-03-29T17:53:38.386Z,100877.56
2023-03-29T17:56:11.771Z,100874.19
2023-03-29T17:58:42.475Z,100873.56
2023-03-29T18:01:15.236Z,100872.53
2023-03-29T18:03:46.152Z,100868.31
2023-03-29T18:06:20.552Z,100871.25
2023-03-29T18:08:54.082Z,100864.56
2023-03-29T18:11:25.637Z,100870.78
2023-03-29T18:13:59.067Z,100874.09
2023-03-29T18:16:31.828Z,100873.25
2023-03-29T18:19:02.551Z,100875.31
2023-03-29T18:21:33.561Z,100865.31
2023-03-29T18:24:04.529Z,100865.72
2023-03-29T18:26:35.577Z,100870.09
2023-03-29T18:29:18.421Z,100864.50
2023-03-29T18:31:49.647Z,100862.19
2023-03-29T18:34:21.216Z,100858.63
2023-03-29T18:36:51.902Z,100858.63
2023-03-29T18:39:25.954Z,100863.63
2023-03-29T18:41:56.975Z,100863.63
2023-03-29T18:44:28.382Z,100857.34
2023-03-29T18:46:59.313Z,100860.25
2023-03-29T18:49:31.580Z,100858.78
2023-03-29T18:52:03.080Z,100861.28
2023-03-29T18:54:34.266Z,100852.72
2023-03-29T18:57:05.660Z,100859.38
2023-03-29T18:59:39.179Z,100856.66
2023-03-29T19:02:10.958Z,100862.25
2023-03-29T19:04:42.236Z,100870.19
2023-03-29T19:07:12.942Z,100865.97
2023-03-29T19:09:43.567Z,100868.88
2023-03-29T19:12:14.387Z,100860.13
2023-03-29T19:14:45.162Z,100858.00
2023-03-29T19:17:16.124Z,100858.84
2023-03-29T19:19:47.072Z,100861.09
2023-03-29T19:22:18.417Z,100863.78
2023-03-29T19:24:49.381Z,100860.44
2023-03-29T19:27:20.577Z,100870.59
2023-03-29T19:29:51.788Z,100869.94
2023-03-29T19:32:22.705Z,100874.69
2023-03-29T19:34:53.616Z,100868.63
2023-03-29T19:37:24.475Z,100868.63
2023-03-29T19:39:56.528Z,100865.28
2023-03-29T19:42:27.375Z,100860.66
2023-03-29T19:44:58.618Z,100865.03
2023-03-29T19:47:29.529Z,100862.31
2023-03-29T19:50:01.119Z,100865.88
2023-03-29T19:52:32.472Z,100858.97
2023-03-29T19:55:03.474Z,100871.84
2023-03-29T19:57:35.620Z,100866.44
2023-03-29T20:00:09.089Z,100868.88
2023-03-29T20:02:43.416Z,100865.13
2023-03-29T20:05:14.921Z,100870.94
2023-03-29T20:07:45.969Z,100867.19
2023-03-29T20:10:17.808Z,100863.84
2023-03-29T20:12:48.830Z,100861.16
2023-03-29T20:15:19.983Z,100860.53
2023-03-29T20:17:52.273Z,100858.84
2023-03-29T20:20:25.142Z,100862.59
2023-03-29T20:22:59.040Z,100863.63
2023-03-29T20:25:33.143Z,100861.56
2023-03-29T20:28:04.845Z,100862.97
2023-03-29T20:30:38.309Z,100866.31
2023-03-29T20:33:09.175Z,100868.38
2023-03-29T20:35:39.705Z,100876.63
2023-03-29T20:38:11.146Z,100869.41
2023-03-29T20:40:45.815Z,100872.09
2023-03-29T20:43:19.324Z,100871.44
2023-03-29T20:45:53.984Z,100874.53
2023-03-29T20:48:31.258Z,100888.03
2023-03-29T20:51:04.029Z,100892.78
2023-03-29T20:53:37.618Z,100891.09
2023-03-29T20:56:09.003Z,100888.78
2023-03-29T20:58:42.889Z,100889.59
2023-03-29T21:01:15.223Z,100891.47
2023-03-29T21:03:45.976Z,100890.19
2023-03-29T21:06:17.295Z,100893.06
2023-03-29T21:08:48.993Z,100886.84
2023-03-29T21:11:20.108Z,100888.69
2023-03-29T21:13:53.779Z,100874.72
2023-03-29T21:16:26.008Z,100885.53
2023-03-29T21:18:56.808Z,100882.53
2023-03-29T21:21:28.006Z,100871.72
2023-03-29T21:23:58.554Z,100864.66
2023-03-29T21:26:29.834Z,100873.78
2023-03-29T21:29:00.633Z,100879.91
2023-03-29T21:31:34.516Z,100879.91
2023-03-29T21:34:05.641Z,100881.78
2023-03-29T21:36:36.741Z,100888.19
2023-03-29T21:39:08.185Z,100889.03
2023-03-29T21:41:38.955Z,100892.13
2023-03-29T21:44:10.041Z,100899.56
2023-03-29T21:46:41.430Z,100900.59
2023-03-29T21:49:13.403Z,100900.97
2023-03-29T21:51:45.342Z,100901.59
2023-03-29T21:54:15.935Z,100908.84
2023-03-29T21:56:48.696Z,100908.03
2023-03-29T21:59:19.278Z,100915.09
2023-03-29T22:01:49.821Z,100909.88
2023-03-29T22:04:35.311Z,100910.06
2023-03-29T22:07:11.521Z,100911.75
2023-03-29T22:09:43.342Z,100917.16
2023-03-29T22:12:14.733Z,100920.22
2023-03-29T22:14:47.661Z,100922.06
2023-03-29T22:17:18.297Z,100919.56
2023-03-29T22:19:48.966Z,100917.03
2023-03-29T22:22:20.272Z,100930.72
2023-03-29T22:24:55.681Z,100927.00
2023-03-29T22:27:26.512Z,100927.81
2023-03-29T22:29:57.012Z,100934.09
2023-03-29T22:32:28.023Z,100936.94
2023-03-29T22:34:59.619Z,100933.22
2023-03-29T22:37:30.669Z,100942.53
2023-03-29T22:40:01.505Z,100943.19
2023-03-29T22:42:33.046Z,100942.34
2023-03-29T22:45:03.798Z,100954.00
2023-03-29T22:47:36.361Z,100965.59
2023-03-29T22:50:08.438Z,100968.13
2023-03-29T22:52:39.655Z,100962.75
2023-03-29T22:55:10.612Z,100970.63
2023-03-29T22:57:42.562Z,100974.19
2023-03-29T23:00:14.710Z,100976.91
2023-03-29T23:02:45.164Z,100979.59
2023-03-29T23:05:17.340Z,100979.41
2023-03-29T23:07:47.964Z,100976.16
2023-03-29T23:10:18.776Z,100980.25
2023-03-29T23:12:52.878Z,100975.66
2023-03-29T23:15:24.203Z,100983.22
2023-03-29T23:17:55.483Z,100980.63
2023-03-29T23:20:26.134Z,100983.31
2023-03-29T23:22:57.195Z,100983.97
2023-03-29T23:25:28.613Z,100991.03
2023-03-29T23:28:00.927Z,100984.78
2023-03-29T23:30:31.880Z,100989.00
2023-03-29T23:33:03.400Z,100988.91
2023-03-29T23:35:34.772Z,100982.94
2023-03-29T23:38:06.712Z,100993.88
2023-03-29T23:40:37.818Z,100984.09
2023-03-29T23:43:09.977Z,100989.28
2023-03-29T23:45:41.604Z,100987.75
2023-03-29T23:48:12.783Z,100992.41
2023-03-29T23:50:47.260Z,100985.34
2023-03-29T23:53:18.027Z,100985.63
2023-03-29T23:55:50.108Z,100983.00
2023-03-29T23:58:20.544Z,100992.13
